Time,TemperatureF,DewpointF,PressureIn,WindDirection,WindDirectionDegrees,WindSpeedMPH,WindSpeedGustMPH,Humidity,HourlyPrecipIn,Conditions,Clouds,dailyrainin,SoftwareType,DateUTC
2013-02-02 00:02:00,15.0,11.0,-100.00,North,10,9.0,11.0,84,-99.99,,,-99.99,,2013-02-02 06:02:00,
2013-02-02 00:12:00,15.0,11.0,-100.00,North,5,6.0,11.0,85,-99.99,,,-99.99,,2013-02-02 06:12:00,
2013-02-02 00:22:00,15.0,11.0,-100.00,North,10,6.0,10.0,86,-99.99,,,-99.99,,2013-02-02 06:22:00,
2013-02-02 00:32:00,15.0,11.0,-100.00,North,10,6.0,10.0,86,-99.99,,,-99.99,,2013-02-02 06:32:00,
2013-02-02 00:41:00,15.0,12.0,-100.00,North,10,6.0,11.0,86,-99.99,,,-99.99,,2013-02-02 06:41:00,
2013-02-02 00:52:00,15.0,12.0,-100.00,North,10,7.0,12.0,88,-99.99,,,-99.99,,2013-02-02 06:52:00,
2013-02-02 01:02:00,15.0,12.0,-100.00,North,10,7.0,12.0,88,-99.99,,,-99.99,,2013-02-02 07:02:00,
2013-02-02 01:12:00,15.0,12.0,-100.00,North,10,10.0,16.0,88,-99.99,,,-99.99,,2013-02-02 07:12:00,
2013-02-02 01:21:00,15.0,13.0,-100.00,North,10,10.0,16.0,89,-99.99,,,-99.99,,2013-02-02 07:21:00,
2013-02-02 01:31:00,15.0,13.0,-100.00,North,10,10.0,16.0,89,-99.99,,,-99.99,,2013-02-02 07:31:00,
2013-02-02 01:42:00,15.0,13.0,-100.00,North,10,10.0,16.0,89,-99.99,,,-99.99,,2013-02-02 07:42:00,
2013-02-02 01:52:00,16.0,14.0,-100.00,NNE,15,9.0,14.0,90,-99.99,,,-99.99,,2013-02-02 07:52:00,
2013-02-02 02:01:00,16.0,14.0,-100.00,NNE,15,9.0,14.0,90,-99.99,,,-99.99,,2013-02-02 08:01:00,
2013-02-02 02:11:00,16.0,14.0,-100.00,NNE,15,9.0,14.0,90,-99.99,,,-99.99,,2013-02-02 08:11:00,
2013-02-02 02:21:00,17.0,15.0,-100.00,North,10,9.0,13.0,91,-99.99,,,-99.99,,2013-02-02 08:21:00,
2013-02-02 02:31:00,17.0,15.0,-100.00,North,10,9.0,13.0,91,-99.99,,,-99.99,,2013-02-02 08:31:00,
2013-02-02 02:41:00,17.0,15.0,-100.00,North,10,9.0,13.0,91,-99.99,,,-99.99,,2013-02-02 08:41:00,
2013-02-02 02:53:00,18.0,15.0,-100.00,NNE,15,9.0,14.0,91,-99.99,,,-99.99,,2013-02-02 08:53:00,
2013-02-02 03:01:00,18.0,15.0,-100.00,NNE,15,9.0,14.0,91,-99.99,,,-99.99,,2013-02-02 09:01:00,
2013-02-02 03:11:00,18.0,15.0,-100.00,NNE,15,9.0,14.0,91,-99.99,,,-99.99,,2013-02-02 09:11:00,
2013-02-02 03:22:00,19.0,17.0,-100.00,NNE,15,13.0,16.0,92,-99.99,,,-99.99,,2013-02-02 09:22:00,
2013-02-02 03:31:00,19.0,17.0,-100.00,NNE,15,13.0,16.0,92,-99.99,,,-99.99,,2013-02-02 09:31:00,
2013-02-02 03:42:00,19.0,17.0,-100.00,NNE,15,13.0,17.0,91,-99.99,,,-99.99,,2013-02-02 09:42:00,
2013-02-02 03:52:00,20.0,17.0,-100.00,NNE,15,11.0,14.0,91,-99.99,,,-99.99,,2013-02-02 09:52:00,
2013-02-02 04:01:00,20.0,17.0,-100.00,NNE,15,11.0,14.0,91,-99.99,,,-99.99,,2013-02-02 10:01:00,
2013-02-02 04:11:00,20.0,18.0,-100.00,NNE,15,10.0,15.0,91,-99.99,,,-99.99,,2013-02-02 10:11:00,
2013-02-02 04:21:00,20.0,18.0,-100.00,NNE,15,11.0,16.0,91,-99.99,,,-99.99,,2013-02-02 10:21:00,
2013-02-02 04:32:00,20.0,18.0,-100.00,NNE,15,11.0,16.0,91,-99.99,,,-99.99,,2013-02-02 10:32:00,
2013-02-02 04:42:00,20.0,18.0,-100.00,North,10,11.0,15.0,91,-99.99,,,-99.99,,2013-02-02 10:42:00,
2013-02-02 04:52:00,20.0,18.0,-100.00,North,10,11.0,16.0,91,-99.99,,,-99.99,,2013-02-02 10:52:00,
2013-02-02 05:01:00,20.0,18.0,-100.00,North,10,11.0,16.0,91,-99.99,,,-99.99,,2013-02-02 11:01:00,
2013-02-02 05:11:00,21.0,19.0,-100.00,North,10,11.0,16.0,91,-99.99,,,-99.99,,2013-02-02 11:11:00,
2013-02-02 05:21:00,21.0,19.0,-100.00,NNE,15,10.0,16.0,91,-99.99,,,-99.99,,2013-02-02 11:21:00,
2013-02-02 05:32:00,21.0,19.0,-100.00,NNE,15,10.0,16.0,91,-99.99,,,-99.99,,2013-02-02 11:32:00,
2013-02-02 05:42:00,21.0,19.0,-100.00,NNE,15,11.0,14.0,92,-99.99,,,-99.99,,2013-02-02 11:42:00,
2013-02-02 05:52:00,21.0,19.0,-100.00,NNE,15,12.0,16.0,92,-99.99,,,-99.99,,2013-02-02 11:52:00,
2013-02-02 06:02:00,21.0,19.0,-100.00,NNE,15,12.0,16.0,92,-99.99,,,-99.99,,2013-02-02 12:02:00,
2013-02-02 06:11:00,21.0,19.0,-100.00,NNE,15,11.0,14.0,92,-99.99,,,-99.99,,2013-02-02 12:11:00,
2013-02-02 06:22:00,21.0,19.0,-100.00,NNE,15,13.0,16.0,92,-99.99,,,-99.99,,2013-02-02 12:22:00,
2013-02-02 06:32:00,21.0,19.0,-100.00,NNE,15,13.0,16.0,92,-99.99,,,-99.99,,2013-02-02 12:32:00,
2013-02-02 06:42:00,21.0,19.0,-100.00,NNE,15,9.0,14.0,92,-99.99,,,-99.99,,2013-02-02 12:42:00,
2013-02-02 06:52:00,22.0,20.0,-100.00,North,10,10.0,14.0,92,-99.99,,,-99.99,,2013-02-02 12:52:00,
2013-02-02 07:03:00,22.0,20.0,-100.00,North,10,10.0,14.0,92,-99.99,,,-99.99,,2013-02-02 13:03:00,
2013-02-02 07:11:00,22.0,20.0,-100.00,NNE,15,9.0,13.0,92,-99.99,,,-99.99,,2013-02-02 13:11:00,
2013-02-02 07:21:00,22.0,20.0,-100.00,NNE,15,11.0,14.0,91,-99.99,,,-99.99,,2013-02-02 13:21:00,
2013-02-02 07:32:00,22.0,20.0,-100.00,North,10,11.0,14.0,91,-99.99,,,-99.99,,2013-02-02 13:32:00,
2013-02-02 07:42:00,22.0,20.0,-100.00,North,10,11.0,14.0,91,-99.99,,,-99.99,,2013-02-02 13:42:00,
2013-02-02 07:52:00,22.0,20.0,-100.00,North,10,8.0,11.0,91,-99.99,,,-99.99,,2013-02-02 13:52:00,
2013-02-02 08:02:00,22.0,20.0,-100.00,North,10,8.0,11.0,91,-99.99,,,-99.99,,2013-02-02 14:02:00,
2013-02-02 08:11:00,22.0,20.0,-100.00,North,10,9.0,11.0,92,-99.99,,,-99.99,,2013-02-02 14:11:00,
2013-02-02 08:22:00,22.0,20.0,-100.00,North,10,6.0,9.0,92,-99.99,,,-99.99,,2013-02-02 14:22:00,
2013-02-02 08:32:00,22.0,20.0,-100.00,North,10,6.0,9.0,92,-99.99,,,-99.99,,2013-02-02 14:32:00,
2013-02-02 08:42:00,22.0,20.0,-100.00,North,10,7.0,11.0,92,-99.99,,,-99.99,,2013-02-02 14:42:00,
2013-02-02 08:52:00,22.0,20.0,-100.00,North,10,7.0,9.0,92,-99.99,,,-99.99,,2013-02-02 14:52:00,
2013-02-02 09:03:00,22.0,20.0,-100.00,North,10,7.0,9.0,92,-99.99,,,-99.99,,2013-02-02 15:03:00,
2013-02-02 09:12:00,23.0,21.0,-100.00,North,10,9.0,14.0,92,-99.99,,,-99.99,,2013-02-02 15:12:00,
2013-02-02 09:22:00,24.0,21.0,-100.00,NNE,15,9.0,11.0,91,-99.99,,,-99.99,,2013-02-02 15:22:00,
2013-02-02 09:32:00,24.0,21.0,-100.00,NNE,15,9.0,11.0,91,-99.99,,,-99.99,,2013-02-02 15:32:00,
2013-02-02 09:42:00,24.0,21.0,-100.00,NNE,15,11.0,15.0,90,-99.99,,,-99.99,,2013-02-02 15:42:00,
2013-02-02 09:52:00,24.0,21.0,-100.00,NNE,20,12.0,16.0,90,-99.99,,,-99.99,,2013-02-02 15:52:00,
2013-02-02 10:03:00,24.0,21.0,-100.00,NNE,20,12.0,16.0,90,-99.99,,,-99.99,,2013-02-02 16:03:00,
2013-02-02 10:11:00,21.0,18.0,-100.00,NNE,20,21.0,26.0,89,-99.99,,,-99.99,,2013-02-02 16:11:00,
2013-02-02 10:22:00,20.0,17.0,-100.00,NNE,25,16.0,29.0,89,-99.99,,,-99.99,,2013-02-02 16:22:00,
2013-02-02 10:32:00,20.0,17.0,-100.00,NNE,25,16.0,29.0,89,-99.99,,,-99.99,,2013-02-02 16:32:00,
2013-02-02 10:42:00,18.0,15.0,-100.00,NNE,25,20.0,29.0,87,-99.99,,,-99.99,,2013-02-02 16:42:00,
2013-02-02 10:52:00,15.0,12.0,-100.00,NNE,25,24.0,29.0,85,-99.99,,,-99.99,,2013-02-02 16:52:00,
2013-02-02 11:02:00,15.0,12.0,-100.00,NNE,25,24.0,29.0,85,-99.99,,,-99.99,,2013-02-02 17:02:00,
2013-02-02 11:11:00,14.0,10.0,-100.00,NNE,25,21.0,27.0,84,-99.99,,,-99.99,,2013-02-02 17:11:00,
2013-02-02 11:22:00,14.0,9.0,-100.00,NNE,25,17.0,23.0,81,-99.99,,,-99.99,,2013-02-02 17:22:00,
2013-02-02 11:32:00,14.0,9.0,-100.00,NNE,25,17.0,23.0,81,-99.99,,,-99.99,,2013-02-02 17:32:00,
2013-02-02 11:42:00,13.0,8.0,-100.00,NNE,20,15.0,21.0,80,-99.99,,,-99.99,,2013-02-02 17:42:00,
2013-02-02 11:52:00,13.0,9.0,-100.00,NNE,20,14.0,18.0,81,-99.99,,,-99.99,,2013-02-02 17:52:00,
2013-02-02 12:02:00,13.0,9.0,-100.00,NNE,20,14.0,18.0,81,-99.99,,,-99.99,,2013-02-02 18:02:00,
2013-02-02 12:12:00,13.0,9.0,-100.00,NNE,15,14.0,20.0,81,-99.99,,,-99.99,,2013-02-02 18:12:00,
2013-02-02 12:22:00,13.0,8.0,-100.00,NNE,15,15.0,21.0,80,-99.99,,,-99.99,,2013-02-02 18:22:00,
2013-02-02 12:32:00,13.0,8.0,-100.00,NNE,15,15.0,21.0,80,-99.99,,,-99.99,,2013-02-02 18:32:00,
2013-02-02 12:42:00,13.0,8.0,-100.00,NNE,20,14.0,19.0,80,-99.99,,,-99.99,,2013-02-02 18:42:00,
2013-02-02 12:52:00,14.0,9.0,-100.00,NNE,25,14.0,18.0,79,-99.99,,,-99.99,,2013-02-02 18:52:00,
2013-02-02 13:02:00,14.0,9.0,-100.00,NNE,25,14.0,18.0,79,-99.99,,,-99.99,,2013-02-02 19:02:00,
2013-02-02 13:12:00,13.0,8.0,-100.00,NNE,25,17.0,21.0,78,-99.99,,,-99.99,,2013-02-02 19:12:00,
2013-02-02 13:21:00,14.0,9.0,-100.00,NNE,30,14.0,19.0,78,-99.99,,,-99.99,,2013-02-02 19:21:00,
2013-02-02 13:32:00,14.0,9.0,-100.00,NNE,30,14.0,19.0,78,-99.99,,,-99.99,,2013-02-02 19:32:00,
2013-02-02 13:42:00,14.0,8.0,-100.00,NNE,30,13.0,16.0,76,-99.99,,,-99.99,,2013-02-02 19:42:00,
2013-02-02 13:52:00,15.0,8.0,-100.00,NNE,30,14.0,18.0,75,-99.99,,,-99.99,,2013-02-02 19:52:00,
2013-02-02 14:01:00,15.0,8.0,-100.00,NNE,30,14.0,18.0,75,-99.99,,,-99.99,,2013-02-02 20:01:00,
2013-02-02 14:11:00,15.0,8.0,-100.00,NNE,30,14.0,19.0,73,-99.99,,,-99.99,,2013-02-02 20:11:00,
2013-02-02 14:21:00,14.0,6.0,-100.00,NNE,30,14.0,19.0,70,-99.99,,,-99.99,,2013-02-02 20:21:00,
2013-02-02 14:32:00,14.0,6.0,-100.00,NNE,30,14.0,19.0,70,-99.99,,,-99.99,,2013-02-02 20:32:00,
2013-02-02 14:42:00,14.0,6.0,-100.00,NNE,30,17.0,20.0,69,-99.99,,,-99.99,,2013-02-02 20:42:00,
2013-02-02 14:52:00,15.0,6.0,-100.00,NNE,30,16.0,20.0,67,-99.99,,,-99.99,,2013-02-02 20:52:00,
2013-02-02 15:02:00,15.0,6.0,-100.00,NNE,30,16.0,20.0,67,-99.99,,,-99.99,,2013-02-02 21:02:00,
2013-02-02 15:11:00,15.0,5.0,-100.00,NNE,30,17.0,21.0,64,-99.99,,,-99.99,,2013-02-02 21:11:00,
2013-02-02 15:21:00,15.0,5.0,-100.00,NNE,30,15.0,21.0,66,-99.99,,,-99.99,,2013-02-02 21:21:00,
2013-02-02 15:32:00,15.0,5.0,-100.00,NNE,30,16.0,21.0,66,-99.99,,,-99.99,,2013-02-02 21:32:00,
2013-02-02 15:42:00,15.0,5.0,-100.00,NNE,30,16.0,21.0,66,-99.99,,,-99.99,,2013-02-02 21:42:00,
2013-02-02 15:52:00,14.0,5.0,-100.00,NNE,30,15.0,20.0,66,-99.99,,,-99.99,,2013-02-02 21:52:00,
2013-02-02 16:02:00,14.0,5.0,-100.00,NNE,30,15.0,20.0,66,-99.99,,,-99.99,,2013-02-02 22:02:00,
2013-02-02 16:21:00,13.0,4.0,-100.00,NNE,30,13.0,19.0,66,-99.99,,,-99.99,,2013-02-02 22:21:00,
2013-02-02 16:32:00,13.0,4.0,-100.00,NNE,30,13.0,19.0,66,-99.99,,,-99.99,,2013-02-02 22:32:00,
2013-02-02 16:42:00,13.0,4.0,-100.00,NNE,30,13.0,16.0,67,-99.99,,,-99.99,,2013-02-02 22:42:00,
2013-02-02 16:52:00,13.0,4.0,-100.00,NNE,30,14.0,18.0,67,-99.99,,,-99.99,,2013-02-02 22:52:00,
2013-02-02 17:02:00,13.0,4.0,-100.00,NNE,30,14.0,18.0,67,-99.99,,,-99.99,,2013-02-02 23:02:00,
2013-02-02 17:11:00,12.0,3.0,-100.00,NNE,30,13.0,17.0,67,-99.99,,,-99.99,,2013-02-02 23:11:00,
2013-02-02 17:21:00,12.0,3.0,-100.00,NNE,30,13.0,15.0,67,-99.99,,,-99.99,,2013-02-02 23:21:00,
2013-02-02 17:32:00,12.0,3.0,-100.00,NNE,30,13.0,15.0,67,-99.99,,,-99.99,,2013-02-02 23:32:00,
2013-02-02 17:42:00,11.0,3.0,-100.00,NE,35,13.0,16.0,67,-99.99,,,-99.99,,2013-02-02 23:42:00,
2013-02-02 17:52:00,11.0,3.0,-100.00,NNE,25,11.0,16.0,67,-99.99,,,-99.99,,2013-02-02 23:52:00,
2013-02-02 18:02:00,11.0,3.0,-100.00,NNE,25,11.0,16.0,67,-99.99,,,-99.99,,2013-02-03 00:02:00,
2013-02-02 18:11:00,11.0,3.0,-100.00,NNE,20,9.0,14.0,67,-99.99,,,-99.99,,2013-02-03 00:11:00,
2013-02-02 18:22:00,11.0,3.0,-100.00,NNE,20,9.0,13.0,67,-99.99,,,-99.99,,2013-02-03 00:22:00,
2013-02-02 18:32:00,11.0,3.0,-100.00,NNE,20,9.0,13.0,67,-99.99,,,-99.99,,2013-02-03 00:32:00,
2013-02-02 18:42:00,11.0,3.0,-100.00,NNE,20,9.0,13.0,67,-99.99,,,-99.99,,2013-02-03 00:42:00,
2013-02-02 18:52:00,11.0,3.0,-100.00,NNE,25,9.0,11.0,69,-99.99,,,-99.99,,2013-02-03 00:52:00,
2013-02-02 19:02:00,11.0,3.0,-100.00,NNE,25,9.0,11.0,69,-99.99,,,-99.99,,2013-02-03 01:02:00,
2013-02-02 19:11:00,11.0,3.0,-100.00,NNE,25,8.0,9.0,69,-99.99,,,-99.99,,2013-02-03 01:11:00,
2013-02-02 19:21:00,11.0,3.0,-100.00,NNE,25,7.0,9.0,70,-99.99,,,-99.99,,2013-02-03 01:21:00,
2013-02-02 19:32:00,11.0,3.0,-100.00,NNE,25,7.0,9.0,70,-99.99,,,-99.99,,2013-02-03 01:32:00,
2013-02-02 19:42:00,11.0,3.0,-100.00,NNE,25,6.0,9.0,70,-99.99,,,-99.99,,2013-02-03 01:42:00,
2013-02-02 19:52:00,11.0,3.0,-100.00,NNE,25,6.0,8.0,70,-99.99,,,-99.99,,2013-02-03 01:52:00,
2013-02-02 20:01:00,11.0,3.0,-100.00,NNE,25,6.0,8.0,70,-99.99,,,-99.99,,2013-02-03 02:01:00,
2013-02-02 20:11:00,11.0,3.0,-100.00,NNE,20,4.0,7.0,70,-99.99,,,-99.99,,2013-02-03 02:11:00,
2013-02-02 20:21:00,11.0,3.0,-100.00,NNE,20,4.0,7.0,70,-99.99,,,-99.99,,2013-02-03 02:21:00,
2013-02-02 20:32:00,11.0,3.0,-100.00,NNE,20,4.0,7.0,70,-99.99,,,-99.99,,2013-02-03 02:32:00,
2013-02-02 20:42:00,10.0,3.0,-100.00,North,0,3.0,5.0,71,-99.99,,,-99.99,,2013-02-03 02:42:00,
2013-02-02 20:52:00,10.0,3.0,-100.00,North,0,2.0,5.0,71,-99.99,,,-99.99,,2013-02-03 02:52:00,
2013-02-02 21:02:00,10.0,3.0,-100.00,North,0,2.0,5.0,71,-99.99,,,-99.99,,2013-02-03 03:02:00,
2013-02-02 21:11:00,11.0,3.0,-100.00,North,0,1.0,6.0,72,-99.99,,,-99.99,,2013-02-03 03:11:00,
2013-02-02 21:21:00,10.0,3.0,-100.00,NNE,25,0.0,2.0,72,-99.99,,,-99.99,,2013-02-03 03:21:00,
2013-02-02 21:32:00,10.0,3.0,-100.00,NNE,25,0.0,2.0,72,-99.99,,,-99.99,,2013-02-03 03:32:00,
2013-02-02 21:42:00,9.0,2.0,-100.00,North,0,1.0,2.0,72,-99.99,,,-99.99,,2013-02-03 03:42:00,
2013-02-02 21:52:00,8.0,1.0,-100.00,North,0,0.0,1.0,73,-99.99,,,-99.99,,2013-02-03 03:52:00,
2013-02-02 22:01:00,8.0,1.0,-100.00,North,0,0.0,1.0,73,-99.99,,,-99.99,,2013-02-03 04:01:00,
2013-02-02 22:11:00,5.0,-2.0,-100.00,North,0,0.0,0.0,73,-99.99,,,-99.99,,2013-02-03 04:11:00,
2013-02-02 22:21:00,4.0,-3.0,-100.00,North,0,0.0,0.0,73,-99.99,,,-99.99,,2013-02-03 04:21:00,
2013-02-02 22:32:00,4.0,-3.0,-100.00,North,0,0.0,0.0,73,-99.99,,,-99.99,,2013-02-03 04:32:00,
2013-02-02 22:42:00,3.0,-3.0,-100.00,North,5,5.0,6.0,74,-99.99,,,-99.99,,2013-02-03 04:42:00,
2013-02-02 22:52:00,6.0,0.0,-100.00,NNE,15,1.0,4.0,76,-99.99,,,-99.99,,2013-02-03 04:52:00,
2013-02-02 23:03:00,6.0,0.0,-100.00,NNE,15,1.0,4.0,76,-99.99,,,-99.99,,2013-02-03 05:03:00,
2013-02-02 23:12:00,7.0,1.0,-100.00,NNE,15,1.0,4.0,77,-99.99,,,-99.99,,2013-02-03 05:12:00,
2013-02-02 23:22:00,8.0,2.0,-100.00,NNE,15,1.0,3.0,77,-99.99,,,-99.99,,2013-02-03 05:22:00,
2013-02-02 23:32:00,8.0,2.0,-100.00,NNE,15,1.0,3.0,77,-99.99,,,-99.99,,2013-02-03 05:32:00,
2013-02-02 23:42:00,9.0,3.0,-100.00,NNE,15,1.0,2.0,77,-99.99,,,-99.99,,2013-02-03 05:42:00,
2013-02-02 23:52:00,9.0,4.0,-100.00,NNE,15,1.0,3.0,78,-99.99,,,-99.99,,2013-02-03 05:52:00,